Time;durP1;ratioP1;P1;durP2;ratioP2;P2;SDS_P1;SDS_P2;PMS_P1;PMS_P2;Temp;Humidity;BMP_temperature;BMP_pressure;BME280_temperature;BME280_humidity;BME280_pressure;Samples;Min_cycle;Max_cycle;Signal;HPM_P1;HPM_P2
2021/08/01 00:01:24;;;;;;;4.38;2.38;;;17.10;99.90;;;;;;5049742;28;20043;-75
2021/08/01 00:03:52;;;;;;;4.47;2.40;;;17.10;99.90;;;;;;5048496;28;20028;-74
2021/08/01 00:06:18;;;;;;;5.22;2.60;;;17.10;99.90;;;;;;5063970;28;20082;-73
2021/08/01 00:08:46;;;;;;;4.88;2.50;;;17.20;99.90;;;;;;5030911;28;20029;-74
2021/08/01 00:11:14;;;;;;;4.28;2.67;;;17.20;99.90;;;;;;5046664;28;20036;-75
2021/08/01 00:13:39;;;;;;;4.97;2.53;;;17.20;99.80;;;;;;5048941;28;20056;-73
2021/08/01 00:16:05;;;;;;;4.30;2.63;;;17.20;99.50;;;;;;5048536;28;20123;-75
2021/08/01 00:18:31;;;;;;;5.25;2.80;;;17.30;99.30;;;;;;5017719;28;20044;-73
2021/08/01 00:20:59;;;;;;;5.90;2.58;;;17.30;98.90;;;;;;5013928;28;20028;-74
2021/08/01 00:23:27;;;;;;;5.20;2.60;;;17.30;99.20;;;;;;5013208;28;20025;-74
2021/08/01 00:25:57;;;;;;;5.43;2.60;;;17.40;99.30;;;;;;5047771;28;20106;-74
2021/08/01 00:28:23;;;;;;;4.70;2.72;;;17.40;99.10;;;;;;5064149;28;20040;-74
2021/08/01 00:30:49;;;;;;;5.05;2.70;;;17.40;98.80;;;;;;5014619;28;20029;-74
2021/08/01 00:33:14;;;;;;;7.68;2.90;;;17.40;99.50;;;;;;5048904;28;20458;-74
2021/08/01 00:35:40;;;;;;;5.07;2.92;;;17.40;99.90;;;;;;5048288;28;20052;-74
2021/08/01 00:38:07;;;;;;;5.35;2.83;;;17.40;99.90;;;;;;5049248;28;20489;-74
2021/08/01 00:40:32;;;;;;;5.55;2.97;;;17.40;99.90;;;;;;5048503;28;20037;-74
2021/08/01 00:43:00;;;;;;;7.07;2.72;;;17.50;99.90;;;;;;5013492;28;20029;-74
2021/08/01 00:45:26;;;;;;;5.18;2.70;;;17.60;99.90;;;;;;5049532;28;20029;-74
2021/08/01 00:47:51;;;;;;;6.72;3.22;;;17.50;99.90;;;;;;5030740;28;20035;-75
2021/08/01 00:50:19;;;;;;;5.28;3.03;;;17.50;99.90;;;;;;5031047;28;20746;-74
2021/08/01 00:52:48;;;;;;;7.28;3.30;;;17.40;99.90;;;;;;5030203;28;20033;-74
2021/08/01 00:55:14;;;;;;;6.47;3.17;;;17.50;99.90;;;;;;5047399;28;20033;-75
2021/08/01 00:57:42;;;;;;;5.28;3.03;;;17.40;99.90;;;;;;5048020;28;20091;-75
2021/08/01 01:00:13;;;;;;;5.65;3.08;;;17.40;99.90;;;;;;5047604;28;20083;-74
2021/08/01 01:02:38;;;;;;;6.80;3.15;;;17.40;99.90;;;;;;5030295;28;20029;-75
2021/08/01 01:05:14;;;;;;;7.07;3.10;;;17.40;99.90;;;;;;5035090;28;20033;-74
2021/08/01 01:07:49;;;;;;;5.28;2.90;;;17.40;99.90;;;;;;5047484;28;20029;-74
2021/08/01 01:10:31;;;;;;;6.38;3.60;;;17.40;99.90;;;;;;5063499;28;20206;-74
2021/08/01 01:13:14;;;;;;;6.53;3.17;;;17.30;99.90;;;;;;5032958;28;20120;-73
2021/08/01 01:15:46;;;;;;;5.88;3.00;;;17.30;99.90;;;;;;5047613;28;20025;-74
2021/08/01 01:18:17;;;;;;;5.88;3.00;;;17.30;99.90;;;;;;5014223;28;20099;-74
2021/08/01 01:20:57;;;;;;;7.60;3.38;;;17.40;99.90;;;;;;5044456;28;20029;-74
2021/08/01 01:23:43;;;;;;;6.15;3.22;;;17.40;99.90;;;;;;5062496;28;20087;-74
2021/08/01 01:26:31;;;;;;;7.72;3.05;;;17.50;99.90;;;;;;5063642;28;20086;-75
2021/08/01 01:29:21;;;;;;;9.05;3.10;;;17.40;99.90;;;;;;5015006;28;20056;-75
2021/08/01 01:31:48;;;;;;;6.13;2.80;;;17.40;99.90;;;;;;5027435;28;20045;-75
2021/08/01 01:34:36;;;;;;;7.60;3.03;;;17.50;99.90;;;;;;5047564;28;20816;-75
2021/08/01 01:37:08;;;;;;;4.65;2.60;;;17.60;99.90;;;;;;5062684;28;20065;-75
2021/08/01 01:39:40;;;;;;;5.97;2.90;;;17.50;99.90;;;;;;5012145;28;20435;-75
2021/08/01 01:42:06;;;;;;;4.75;2.60;;;17.50;99.90;;;;;;5046841;28;20520;-76
2021/08/01 01:44:33;;;;;;;6.32;2.65;;;17.50;99.90;;;;;;5062624;28;21015;-75
2021/08/01 01:46:58;;;;;;;6.18;2.90;;;17.50;99.90;;;;;;5046057;28;20082;-75
2021/08/01 01:49:26;;;;;;;5.65;2.80;;;17.50;99.90;;;;;;5045845;28;20025;-75
2021/08/01 01:51:54;;;;;;;6.43;2.70;;;17.40;99.90;;;;;;5027330;28;20115;-76
2021/08/01 01:54:22;;;;;;;5.97;2.90;;;17.50;99.90;;;;;;5061465;28;20035;-75
2021/08/01 01:56:50;;;;;;;4.72;2.80;;;17.50;99.90;;;;;;5012684;28;20037;-75
2021/08/01 01:59:18;;;;;;;4.68;2.70;;;17.50;99.90;;;;;;5013408;28;20064;-76
2021/08/01 02:01:46;;;;;;;5.50;2.83;;;17.40;99.90;;;;;;5018946;28;20458;-75
2021/08/01 02:04:11;;;;;;;5.70;2.72;;;17.40;99.90;;;;;;5028710;28;20040;-75
2021/08/01 02:06:38;;;;;;;5.40;3.05;;;17.40;99.90;;;;;;5047099;28;20028;-75
2021/08/01 02:09:12;;;;;;;4.72;2.58;;;17.40;99.90;;;;;;5029415;28;20350;-75
2021/08/01 02:12:06;;;;;;;5.82;2.92;;;17.40;99.90;;;;;;5029922;28;20447;-75
2021/08/01 02:14:57;;;;;;;5.22;2.75;;;17.40;99.90;;;;;;5047544;28;20529;-75
2021/08/01 02:17:43;;;;;;;5.82;3.10;;;17.40;99.90;;;;;;5027135;28;20065;-75
2021/08/01 02:20:09;;;;;;;5.03;2.67;;;17.40;99.90;;;;;;5060782;28;20037;-75
2021/08/01 02:22:35;;;;;;;4.90;2.92;;;17.40;99.90;;;;;;5062902;28;20032;-75
2021/08/01 02:25:00;;;;;;;5.55;2.80;;;17.40;99.90;;;;;;5011939;28;20033;-75
2021/08/01 02:27:28;;;;;;;5.68;3.22;;;17.40;99.90;;;;;;5028722;28;20861;-75
2021/08/01 02:29:54;;;;;;;5.07;3.13;;;17.30;99.90;;;;;;5028441;28;20021;-75
2021/08/01 02:32:22;;;;;;;5.25;2.80;;;17.30;99.90;;;;;;5045500;28;20129;-75
2021/08/01 02:34:47;;;;;;;5.03;2.75;;;17.30;99.90;;;;;;5028994;28;20033;-75
2021/08/01 02:37:13;;;;;;;5.03;3.13;;;17.30;99.90;;;;;;5044217;28;20040;-75
2021/08/01 02:39:39;;;;;;;5.05;3.03;;;17.30;99.90;;;;;;5027864;28;20454;-75
2021/08/01 02:42:11;;;;;;;4.55;3.05;;;17.30;99.90;;;;;;5029069;28;20037;-75
2021/08/01 02:44:37;;;;;;;5.07;2.70;;;17.20;99.90;;;;;;5045277;28;20031;-75
2021/08/01 02:47:09;;;;;;;5.45;2.92;;;17.30;99.90;;;;;;5012863;28;20382;-75
2021/08/01 02:49:38;;;;;;;5.28;3.10;;;17.20;99.90;;;;;;5012861;28;20493;-75
2021/08/01 02:52:04;;;;;;;7.15;3.20;;;17.30;99.90;;;;;;5044796;28;20040;-75
2021/08/01 02:54:32;;;;;;;5.90;3.10;;;17.30;99.90;;;;;;5045239;28;20070;-75
2021/08/01 02:57:01;;;;;;;4.82;3.00;;;17.30;99.90;;;;;;5013513;28;20029;-75
2021/08/01 02:59:27;;;;;;;5.40;3.00;;;17.20;99.90;;;;;;5012688;28;20060;-75
2021/08/01 03:01:56;;;;;;;5.38;2.95;;;17.20;99.90;;;;;;5031446;28;20039;-75
2021/08/01 03:04:24;;;;;;;5.65;3.03;;;17.20;99.90;;;;;;5032369;28;20491;-75
2021/08/01 03:06:53;;;;;;;4.88;3.08;;;17.20;99.90;;;;;;5049727;28;20035;-75
2021/08/01 03:09:19;;;;;;;5.53;3.45;;;17.10;99.90;;;;;;5032323;28;20083;-75
2021/08/01 03:11:46;;;;;;;5.28;2.80;;;17.20;99.90;;;;;;5066867;28;20701;-75
2021/08/01 03:14:14;;;;;;;5.60;2.90;;;17.10;99.90;;;;;;5050383;28;20044;-75
2021/08/01 03:16:40;;;;;;;5.80;3.00;;;17.10;99.90;;;;;;5016358;28;20067;-75
2021/08/01 03:19:05;;;;;;;6.55;3.95;;;17.10;99.90;;;;;;5050165;28;20466;-75
2021/08/01 03:21:31;;;;;;;6.55;3.40;;;17.10;99.90;;;;;;5049436;28;20106;-75
2021/08/01 03:23:59;;;;;;;5.68;3.33;;;17.10;99.90;;;;;;5032021;28;20102;-75
2021/08/01 03:26:27;;;;;;;6.75;3.70;;;17.10;99.90;;;;;;5049685;28;20037;-75
2021/08/01 03:28:52;;;;;;;6.97;3.95;;;17.00;99.90;;;;;;5032460;28;20056;-75
2021/08/01 03:31:18;;;;;;;6.55;3.50;;;17.00;99.90;;;;;;5032849;28;20064;-75
2021/08/01 03:33:49;;;;;;;5.00;3.30;;;17.00;99.90;;;;;;5031760;28;20032;-75
2021/08/01 03:36:14;;;;;;;6.20;3.33;;;17.00;99.90;;;;;;5049098;28;20029;-75
2021/08/01 03:38:40;;;;;;;6.55;3.70;;;16.90;99.90;;;;;;5049043;28;20044;-75
2021/08/01 03:41:08;;;;;;;6.70;4.03;;;16.90;99.90;;;;;;5049642;28;20042;-75
2021/08/01 03:43:34;;;;;;;7.05;3.85;;;16.90;99.90;;;;;;5049481;28;20040;-75
2021/08/01 03:46:01;;;;;;;6.43;3.70;;;16.90;99.90;;;;;;5049612;28;20032;-75
2021/08/01 03:48:27;;;;;;;7.07;4.10;;;16.90;99.90;;;;;;5048888;28;20124;-75
2021/08/01 03:50:53;;;;;;;6.18;4.10;;;16.90;99.90;;;;;;5050093;28;20037;-75
2021/08/01 03:53:19;;;;;;;6.70;4.40;;;16.90;99.90;;;;;;5048633;28;20032;-76
2021/08/01 03:55:44;;;;;;;6.15;4.18;;;16.90;99.90;;;;;;5048733;28;20063;-75
2021/08/01 03:58:10;;;;;;;6.95;4.00;;;16.80;99.90;;;;;;5049272;28;20053;-75
2021/08/01 04:00:38;;;;;;;9.13;4.20;;;16.80;99.90;;;;;;5031346;28;20055;-75
2021/08/01 04:03:08;;;;;;;7.03;4.03;;;16.80;99.90;;;;;;5048558;28;20031;-75
2021/08/01 04:05:33;;;;;;;6.13;3.92;;;16.80;99.90;;;;;;5049195;28;20017;-75
2021/08/01 04:07:59;;;;;;;5.88;3.78;;;16.80;99.90;;;;;;5031760;28;20043;-75
2021/08/01 04:10:27;;;;;;;6.55;4.18;;;16.80;99.90;;;;;;5049610;28;20469;-75
2021/08/01 04:12:55;;;;;;;9.02;4.38;;;16.80;99.90;;;;;;5048367;28;20029;-75
2021/08/01 04:15:23;;;;;;;6.47;4.10;;;16.80;99.90;;;;;;5029856;28;20140;-75
2021/08/01 04:17:49;;;;;;;6.95;4.50;;;16.70;99.90;;;;;;5048476;28;20037;-75
2021/08/01 04:20:16;;;;;;;7.72;4.50;;;16.70;99.90;;;;;;5049064;28;20037;-75
2021/08/01 04:22:44;;;;;;;6.40;4.22;;;16.70;99.90;;;;;;5048828;28;20064;-74
2021/08/01 04:25:12;;;;;;;7.45;4.20;;;16.70;99.90;;;;;;5049023;28;20098;-74
2021/08/01 04:27:41;;;;;;;5.50;3.67;;;16.70;99.90;;;;;;5030125;28;20030;-75
2021/08/01 04:30:10;;;;;;;7.25;4.50;;;16.60;99.90;;;;;;5047511;28;20033;-75
2021/08/01 04:32:36;;;;;;;9.20;5.05;;;16.70;99.90;;;;;;5048775;28;20028;-75
2021/08/01 04:35:02;;;;;;;7.75;4.38;;;16.60;99.90;;;;;;5048547;28;20041;-75
2021/08/01 04:37:29;;;;;;;8.60;4.85;;;16.60;99.90;;;;;;5013861;28;20033;-75
2021/08/01 04:39:55;;;;;;;7.85;5.30;;;16.60;99.90;;;;;;5029938;28;20107;-75
2021/08/01 04:42:21;;;;;;;8.57;5.00;;;16.60;99.90;;;;;;5048289;28;20024;-74
2021/08/01 04:44:46;;;;;;;8.57;5.82;;;16.60;99.90;;;;;;5013473;28;20065;-75
2021/08/01 04:47:14;;;;;;;9.82;5.15;;;16.50;99.90;;;;;;5048647;28;20047;-74
2021/08/01 04:49:44;;;;;;;8.80;5.35;;;16.50;99.90;;;;;;5013257;28;20033;-75
2021/08/01 04:52:17;;;;;;;7.53;5.20;;;16.50;99.90;;;;;;5063183;28;20091;-74
2021/08/01 04:54:42;;;;;;;8.20;5.47;;;16.60;99.90;;;;;;5046745;28;20029;-74
2021/08/01 04:57:08;;;;;;;6.65;4.93;;;16.50;99.90;;;;;;5062751;28;20462;-74
2021/08/01 04:59:36;;;;;;;9.57;5.40;;;16.60;99.90;;;;;;5062666;28;20099;-74
2021/08/01 05:02:02;;;;;;;8.70;5.20;;;16.60;99.90;;;;;;5047387;28;20041;-74
2021/08/01 05:04:28;;;;;;;8.88;4.97;;;16.70;99.90;;;;;;5064348;28;20021;-74
2021/08/01 05:06:54;;;;;;;7.70;5.05;;;16.70;99.90;;;;;;5029846;28;20029;-74
2021/08/01 05:09:20;;;;;;;8.55;5.55;;;16.70;99.90;;;;;;5030601;28;20037;-74
2021/08/01 05:11:45;;;;;;;8.32;5.38;;;16.70;99.90;;;;;;5047426;28;20048;-74
2021/08/01 05:14:11;;;;;;;9.10;5.43;;;16.70;99.90;;;;;;5047185;28;21930;-74
2021/08/01 05:16:36;;;;;;;7.63;4.82;;;16.70;99.90;;;;;;5029391;28;20032;-74
2021/08/01 05:19:04;;;;;;;6.47;4.60;;;16.70;99.90;;;;;;5047013;28;20186;-75
2021/08/01 05:21:34;;;;;;;6.80;4.65;;;16.80;99.90;;;;;;5046903;28;20040;-74
2021/08/01 05:24:00;;;;;;;7.70;4.93;;;16.70;99.90;;;;;;5046758;28;20102;-74
2021/08/01 05:26:31;;;;;;;6.47;4.95;;;16.80;99.90;;;;;;5028577;28;20029;-74
2021/08/01 05:28:56;;;;;;;7.88;4.80;;;16.70;99.90;;;;;;5061786;28;20024;-74
2021/08/01 05:31:26;;;;;;;7.68;4.50;;;16.70;99.90;;;;;;5061836;28;20074;-74
2021/08/01 05:33:52;;;;;;;6.57;4.20;;;16.80;99.90;;;;;;5047924;28;20037;-74
2021/08/01 05:36:18;;;;;;;5.40;3.97;;;16.80;99.90;;;;;;5048187;28;20185;-74
2021/08/01 05:38:43;;;;;;;7.10;4.35;;;16.90;99.90;;;;;;5047440;28;20043;-74
2021/08/01 05:41:12;;;;;;;5.20;3.70;;;16.90;99.90;;;;;;5046684;28;20097;-75
2021/08/01 05:43:41;;;;;;;6.15;3.88;;;16.90;99.90;;;;;;5030262;28;20112;-74
2021/08/01 05:46:10;;;;;;;6.30;4.32;;;16.90;99.90;;;;;;5047381;28;20035;-74
2021/08/01 05:48:35;;;;;;;6.32;3.90;;;16.90;99.90;;;;;;5046275;28;20608;-74
2021/08/01 05:51:05;;;;;;;7.25;4.50;;;16.90;99.90;;;;;;5028648;28;20112;-73
2021/08/01 05:53:33;;;;;;;7.82;4.10;;;16.90;99.90;;;;;;5048141;28;20043;-74
2021/08/01 05:56:08;;;;;;;6.43;4.20;;;17.00;99.90;;;;;;5030178;28;20036;-74
2021/08/01 05:58:34;;;;;;;7.00;3.97;;;17.00;99.90;;;;;;5046185;28;20057;-74
2021/08/01 06:01:08;;;;;;;7.03;3.72;;;17.10;99.90;;;;;;5028959;28;20052;-75
2021/08/01 06:03:36;;;;;;;7.22;4.00;;;17.20;99.90;;;;;;5030241;28;20616;-74
2021/08/01 06:06:11;;;;;;;6.43;3.92;;;17.20;99.90;;;;;;5046518;28;20466;-74
2021/08/01 06:08:39;;;;;;;7.18;4.20;;;17.20;99.90;;;;;;5047672;28;20040;-74
2021/08/01 06:11:07;;;;;;;7.03;4.50;;;17.20;99.90;;;;;;5047423;28;20104;-74
2021/08/01 06:13:35;;;;;;;8.00;5.18;;;17.10;99.90;;;;;;5046037;28;20036;-73
2021/08/01 06:16:01;;;;;;;6.97;4.93;;;17.10;99.90;;;;;;5028295;28;20410;-73
2021/08/01 06:18:28;;;;;;;7.63;5.00;;;17.20;99.90;;;;;;5028276;28;20120;-73
2021/08/01 06:21:07;;;;;;;7.45;4.60;;;17.20;99.90;;;;;;5046892;28;20386;-74
2021/08/01 06:23:34;;;;;;;6.82;5.47;;;17.20;99.90;;;;;;5045563;28;20367;-75
2021/08/01 06:25:59;;;;;;;7.32;4.43;;;17.20;99.90;;;;;;5012615;28;20029;-75
2021/08/01 06:28:25;;;;;;;5.60;4.38;;;17.30;99.90;;;;;;5046510;28;20025;-74
2021/08/01 06:30:51;;;;;;;7.35;5.18;;;17.30;99.90;;;;;;5029260;28;20029;-75
2021/08/01 06:33:17;;;;;;;6.68;5.40;;;17.40;99.90;;;;;;5043564;28;20081;-74
2021/08/01 06:35:42;;;;;;;6.80;4.55;;;17.40;99.90;;;;;;5048389;28;20028;-74
2021/08/01 06:38:08;;;;;;;7.07;3.85;;;17.50;99.90;;;;;;5049644;28;20104;-74
2021/08/01 06:40:35;;;;;;;5.90;4.30;;;17.60;99.90;;;;;;5016202;28;20123;-74
2021/08/01 06:43:01;;;;;;;5.18;3.67;;;17.60;99.90;;;;;;5049997;28;20032;-75
2021/08/01 06:45:29;;;;;;;5.13;4.00;;;17.70;99.90;;;;;;5050925;28;20025;-74
2021/08/01 06:47:55;;;;;;;6.40;4.30;;;17.80;99.90;;;;;;5051263;28;20442;-75
2021/08/01 06:50:25;;;;;;;6.93;4.72;;;17.80;99.90;;;;;;5050962;28;20048;-74
2021/08/01 06:52:50;;;;;;;7.40;4.57;;;17.80;99.90;;;;;;5050658;28;20044;-75
2021/08/01 06:55:18;;;;;;;7.68;4.60;;;17.70;99.90;;;;;;5050533;28;20037;-74
2021/08/01 06:57:44;;;;;;;6.22;4.20;;;17.80;99.90;;;;;;5032729;28;20029;-74
2021/08/01 07:00:13;;;;;;;6.30;4.15;;;17.90;99.90;;;;;;5049615;28;20711;-74
2021/08/01 07:02:41;;;;;;;7.55;4.43;;;17.90;99.90;;;;;;5050067;28;20024;-75
2021/08/01 07:05:09;;;;;;;5.82;4.22;;;17.90;99.90;;;;;;5049673;28;20032;-74
2021/08/01 07:07:37;;;;;;;5.57;3.75;;;18.00;99.90;;;;;;5050391;28;20044;-74
2021/08/01 07:10:05;;;;;;;7.07;4.40;;;18.00;99.90;;;;;;5050600;28;20035;-74
2021/08/01 07:12:31;;;;;;;6.45;4.05;;;18.10;99.90;;;;;;5051979;28;20035;-75
2021/08/01 07:14:56;;;;;;;6.70;4.15;;;18.10;99.90;;;;;;5048411;28;20354;-75
2021/08/01 07:17:22;;;;;;;6.05;3.80;;;18.10;99.90;;;;;;5032378;28;20033;-74
2021/08/01 07:19:50;;;;;;;5.28;3.38;;;18.20;99.90;;;;;;5017907;28;20029;-74
2021/08/01 07:22:18;;;;;;;6.50;3.95;;;18.20;99.90;;;;;;5029498;28;20362;-74
2021/08/01 07:24:44;;;;;;;6.80;4.75;;;18.30;99.90;;;;;;5033493;28;20207;-74
2021/08/01 07:27:11;;;;;;;7.82;4.53;;;18.30;99.90;;;;;;5049349;28;20521;-74
2021/08/01 07:29:37;;;;;;;6.63;3.97;;;18.30;99.90;;;;;;5048388;28;20033;-74
2021/08/01 07:32:06;;;;;;;5.78;3.70;;;18.30;99.90;;;;;;5050069;28;20047;-74
2021/08/01 07:34:31;;;;;;;6.00;3.75;;;18.30;99.90;;;;;;5032314;28;20036;-74
2021/08/01 07:36:59;;;;;;;5.85;3.95;;;18.40;99.90;;;;;;5013600;28;20051;-75
2021/08/01 07:39:25;;;;;;;7.50;3.83;;;18.50;99.90;;;;;;5048612;28;20029;-74
2021/08/01 07:41:50;;;;;;;6.82;4.30;;;18.60;99.90;;;;;;5032162;28;21955;-75
2021/08/01 07:44:16;;;;;;;5.68;3.90;;;18.50;99.90;;;;;;5050160;28;20028;-74
2021/08/01 07:46:44;;;;;;;7.00;4.45;;;18.60;99.90;;;;;;5048366;28;20087;-75
2021/08/01 07:49:12;;;;;;;6.13;4.45;;;18.60;99.90;;;;;;5048243;28;20785;-75
2021/08/01 07:51:37;;;;;;;7.63;4.20;;;18.50;99.90;;;;;;5031544;28;20537;-75
2021/08/01 07:54:03;;;;;;;6.47;4.10;;;18.60;99.90;;;;;;5031689;28;20052;-75
2021/08/01 07:56:29;;;;;;;5.88;3.53;;;18.70;99.90;;;;;;5031188;28;20040;-74
2021/08/01 07:58:54;;;;;;;5.22;3.25;;;18.80;99.90;;;;;;5014462;28;20567;-75
2021/08/01 08:01:20;;;;;;;5.00;3.42;;;18.90;99.90;;;;;;5048701;28;20063;-75
2021/08/01 08:03:45;;;;;;;7.10;3.60;;;19.00;99.90;;;;;;5049511;28;20036;-75
2021/08/01 08:06:11;;;;;;;5.32;3.58;;;19.10;99.90;;;;;;5048341;28;20037;-75
2021/08/01 08:08:36;;;;;;;6.32;3.17;;;19.10;99.90;;;;;;5050289;28;20033;-75
2021/08/01 08:11:02;;;;;;;6.25;3.90;;;19.10;99.90;;;;;;5049546;28;20036;-75
2021/08/01 08:13:28;;;;;;;4.90;3.80;;;19.10;99.90;;;;;;5049814;28;20071;-75
2021/08/01 08:15:56;;;;;;;6.63;3.30;;;19.20;99.90;;;;;;5048494;28;20483;-75
2021/08/01 08:18:22;;;;;;;4.90;3.60;;;19.20;99.90;;;;;;5049386;28;20036;-74
2021/08/01 08:20:50;;;;;;;7.18;3.40;;;19.20;99.90;;;;;;5048472;28;20090;-75
2021/08/01 08:23:15;;;;;;;7.30;3.40;;;19.30;99.90;;;;;;5049019;28;20052;-75
2021/08/01 08:25:44;;;;;;;6.03;3.47;;;19.50;99.90;;;;;;5048335;28;20112;-69
2021/08/01 08:28:12;;;;;;;6.30;3.35;;;19.70;99.90;;;;;;5031514;28;20036;-70
2021/08/01 08:30:38;;;;;;;6.38;3.53;;;19.70;99.90;;;;;;5048325;28;20037;-69
2021/08/01 08:33:04;;;;;;;5.25;3.30;;;19.80;99.90;;;;;;5048743;28;20086;-72
2021/08/01 08:35:30;;;;;;;6.30;3.45;;;19.90;99.90;;;;;;5049294;28;20029;-73
2021/08/01 08:38:07;;;;;;;7.40;3.50;;;20.00;97.90;;;;;;5027871;28;20036;-74
2021/08/01 08:40:37;;;;;;;4.68;3.30;;;20.00;99.40;;;;;;5046342;28;20037;-73
2021/08/01 08:43:03;;;;;;;5.90;3.70;;;20.10;99.90;;;;;;5062730;28;20037;-73
2021/08/01 08:45:31;;;;;;;4.50;3.20;;;20.20;99.90;;;;;;5030721;28;20036;-73
2021/08/01 08:47:59;;;;;;;5.53;3.22;;;20.10;99.70;;;;;;5030133;28;20687;-73
2021/08/01 08:50:27;;;;;;;5.63;3.38;;;20.10;98.90;;;;;;5029906;28;20109;-74
2021/08/01 08:53:04;;;;;;;4.45;2.97;;;20.20;99.90;;;;;;5029287;28;20043;-73
2021/08/01 08:55:36;;;;;;;4.85;3.10;;;20.30;99.90;;;;;;5046100;28;20028;-76
2021/08/01 08:58:05;;;;;;;;;;;20.30;99.90;;;;;;5046955;28;20063;-73
2021/08/01 09:00:31;;;;;;;4.60;3.00;;;20.30;99.90;;;;;;5047078;28;19952;-73
2021/08/01 09:02:59;;;;;;;5.97;3.40;;;20.30;99.90;;;;;;5048093;28;20029;-73
2021/08/01 09:05:25;;;;;;;5.20;2.63;;;20.30;99.90;;;;;;5047505;28;20465;-74
2021/08/01 09:07:50;;;;;;;4.90;2.70;;;20.20;96.60;;;;;;5051347;28;20032;-73
2021/08/01 09:10:16;;;;;;;4.20;2.42;;;20.30;99.50;;;;;;5029856;28;20124;-74
2021/08/01 09:12:51;;;;;;;4.07;2.30;;;20.00;91.00;;;;;;5064401;28;20036;-73
2021/08/01 09:15:19;;;;;;;4.28;2.50;;;20.20;98.00;;;;;;5030136;28;20083;-74
2021/08/01 09:17:47;;;;;;;3.35;2.05;;;20.20;94.10;;;;;;5029760;28;20056;-73
2021/08/01 09:20:22;;;;;;;3.75;2.22;;;20.20;94.80;;;;;;5046447;28;20033;-73
2021/08/01 09:23:00;;;;;;;5.00;2.30;;;20.20;97.30;;;;;;5046280;28;20111;-75
2021/08/01 09:25:32;;;;;;;4.10;2.10;;;20.20;91.70;;;;;;5047104;28;20116;-73
2021/08/01 09:28:09;;;;;;;4.28;2.10;;;20.30;94.30;;;;;;5046977;28;20032;-74
2021/08/01 09:31:04;;;;;;;3.75;2.05;;;20.40;91.90;;;;;;5047709;28;20029;-73
2021/08/01 09:33:43;;;;;;;3.10;1.83;;;20.60;86.70;;;;;;5042936;28;20099;-73
2021/08/01 09:36:15;;;;;;;3.25;1.90;;;20.30;80.20;;;;;;5015879;28;20039;-72
2021/08/01 09:38:49;;;;;;;3.65;2.10;;;20.40;87.70;;;;;;5029007;28;20032;-72
2021/08/01 09:41:25;;;;;;;3.60;2.00;;;20.40;81.00;;;;;;5013410;28;20033;-72
2021/08/01 09:43:55;;;;;;;4.25;1.95;;;20.60;90.20;;;;;;5060905;28;20033;-72
2021/08/01 09:46:22;;;;;;;3.97;2.38;;;20.80;91.60;;;;;;5033327;28;20056;-72
2021/08/01 09:49:19;;;;;;;4.18;2.25;;;21.10;95.90;;;;;;5030068;28;21637;-72
2021/08/01 09:51:47;;;;;;;4.65;2.03;;;21.20;97.50;;;;;;5044506;28;20723;-72
2021/08/01 09:54:19;;;;;;;4.40;2.00;;;21.00;86.90;;;;;;5027065;28;20036;-72
2021/08/01 09:56:54;;;;;;;;;;;21.10;90.00;;;;;;5014429;28;20058;-72
2021/08/01 09:59:23;;;;;;;4.07;2.20;;;21.00;87.30;;;;;;5046678;28;19920;-72
2021/08/01 10:01:54;;;;;;;4.88;2.20;;;20.80;82.20;;;;;;5046184;28;20032;-72
2021/08/01 10:04:42;;;;;;;4.07;2.03;;;20.60;82.30;;;;;;5062450;28;20024;-73
2021/08/01 10:07:09;;;;;;;4.38;2.30;;;20.50;81.60;;;;;;5059248;28;20032;-73
2021/08/01 10:09:39;;;;;;;4.57;2.08;;;20.40;80.70;;;;;;5027327;28;20366;-72
2021/08/01 10:12:05;;;;;;;4.28;2.40;;;20.60;88.80;;;;;;5028189;28;20467;-73
2021/08/01 10:14:31;;;;;;;3.58;2.10;;;20.70;85.80;;;;;;5045517;28;20067;-73
2021/08/01 10:16:57;;;;;;;3.47;1.92;;;20.70;83.50;;;;;;5028469;28;20040;-73
2021/08/01 10:19:25;;;;;;;4.43;2.20;;;20.70;86.90;;;;;;5046194;28;20047;-73
2021/08/01 10:21:55;;;;;;;3.67;2.42;;;20.60;80.50;;;;;;5028640;28;20032;-69
2021/08/01 10:24:37;;;;;;;4.25;2.38;;;20.70;88.40;;;;;;5045315;28;20469;-70
2021/08/01 10:27:07;;;;;;;3.67;2.17;;;20.80;91.40;;;;;;5046697;28;20028;-69
2021/08/01 10:29:41;;;;;;;4.35;2.22;;;20.70;83.40;;;;;;5047788;28;20044;-70
2021/08/01 10:32:11;;;;;;;3.83;2.15;;;20.70;80.00;;;;;;5030298;28;20115;-74
2021/08/01 10:35:05;;;;;;;3.17;2.10;;;20.60;82.30;;;;;;5061354;28;20121;-73
2021/08/01 10:37:37;;;;;;;3.50;2.17;;;20.70;81.70;;;;;;5027865;28;20059;-73
2021/08/01 10:40:09;;;;;;;4.70;2.10;;;20.70;89.60;;;;;;5008324;28;20044;-73
2021/08/01 10:42:37;;;;;;;;;;;20.70;87.50;;;;;;5060522;28;20021;-73
2021/08/01 10:45:04;;;;;;;4.47;2.30;;;20.70;93.80;;;;;;5044888;28;19917;-74
2021/08/01 10:47:30;;;;;;;5.18;2.30;;;20.70;88.40;;;;;;4698629;28;10001308;-73
2021/08/01 10:49:55;;;;;;;4.03;2.40;;;20.70;86.70;;;;;;5043569;28;20236;-73
2021/08/01 10:52:21;;;;;;;4.22;2.20;;;20.80;88.10;;;;;;5027758;28;20032;-73
2021/08/01 10:54:58;;;;;;;4.20;2.42;;;20.90;85.00;;;;;;5044573;28;20072;-73
2021/08/01 10:57:29;;;;;;;3.97;2.00;;;21.00;85.90;;;;;;5027826;28;20047;-73
2021/08/01 10:59:58;;;;;;;4.17;2.17;;;21.00;83.50;;;;;;5029009;28;20692;-73
2021/08/01 11:02:27;;;;;;;3.63;2.30;;;21.00;79.70;;;;;;5045779;28;20028;-73
2021/08/01 11:04:53;;;;;;;3.90;2.20;;;21.10;86.40;;;;;;5060834;28;20347;-73
2021/08/01 11:07:27;;;;;;;5.18;2.22;;;21.10;84.80;;;;;;5044172;28;20033;-73
2021/08/01 11:10:12;;;;;;;4.05;2.20;;;21.30;83.00;;;;;;5046135;28;20032;-74
2021/08/01 11:12:41;;;;;;;3.35;2.10;;;21.40;88.00;;;;;;5025681;28;20100;-74
2021/08/01 11:15:08;;;;;;;3.28;2.00;;;21.50;84.40;;;;;;4697358;28;9999998;-74
2021/08/01 11:17:43;;;;;;;4.45;2.47;;;21.20;81.00;;;;;;5046063;28;20038;-72
2021/08/01 11:20:29;;;;;;;5.07;2.40;;;21.40;81.80;;;;;;5044884;28;20032;-72
2021/08/01 11:22:55;;;;;;;3.80;2.05;;;21.50;83.60;;;;;;5016295;28;20045;-73
2021/08/01 11:25:42;;;;;;;3.92;2.20;;;21.50;80.10;;;;;;5065548;28;20174;-73
2021/08/01 11:28:08;;;;;;;4.28;2.28;;;21.30;79.60;;;;;;5032610;28;20323;-73
2021/08/01 11:30:58;;;;;;;3.80;2.10;;;21.40;79.40;;;;;;5048680;28;20040;-73
2021/08/01 11:33:45;;;;;;;3.72;2.33;;;21.20;81.90;;;;;;5046273;28;20028;-73
2021/08/01 11:36:13;;;;;;;4.90;2.47;;;21.10;82.20;;;;;;5030030;28;20033;-73
2021/08/01 11:39:04;;;;;;;4.38;2.35;;;21.10;86.10;;;;;;5047739;28;20028;-73
2021/08/01 11:41:33;;;;;;;4.43;2.40;;;20.90;85.10;;;;;;5030280;28;20481;-72
2021/08/01 11:44:20;;;;;;;4.00;2.42;;;20.80;89.00;;;;;;5027670;28;20045;-72
2021/08/01 11:46:57;;;;;;;6.40;3.00;;;20.70;90.60;;;;;;5045660;28;20025;-73
2021/08/01 11:49:30;;;;;;;4.20;2.58;;;20.60;92.70;;;;;;5047143;28;20032;-69
2021/08/01 11:51:58;;;;;;;5.13;2.85;;;20.50;94.10;;;;;;5047651;28;20036;-68
2021/08/01 11:54:38;;;;;;;4.93;2.90;;;20.60;98.60;;;;;;5046779;28;20420;-72
2021/08/01 11:57:05;;;;;;;6.10;2.90;;;20.60;99.90;;;;;;5062864;28;20029;-73
2021/08/01 11:59:33;;;;;;;6.20;3.22;;;20.60;99.40;;;;;;5028541;28;20045;-71
2021/08/01 12:02:03;;;;;;;4.93;2.80;;;20.60;99.90;;;;;;5029592;28;20731;-71
2021/08/01 12:04:29;;;;;;;4.53;2.60;;;20.60;99.90;;;;;;5046489;28;20861;-71
2021/08/01 12:06:55;;;;;;;4.30;2.80;;;20.70;99.90;;;;;;5027101;28;20024;-72
2021/08/01 12:09:50;;;;;;;4.82;3.00;;;20.80;99.90;;;;;;5028163;28;20063;-72
2021/08/01 12:12:25;;;;;;;4.97;3.10;;;20.80;99.90;;;;;;5036948;28;20418;-72
2021/08/01 12:14:53;;;;;;;3.97;2.85;;;20.90;99.90;;;;;;5046393;28;20032;-72
2021/08/01 12:17:18;;;;;;;4.53;3.00;;;21.10;99.90;;;;;;5061870;28;20063;-72
2021/08/01 12:19:47;;;;;;;5.72;3.00;;;21.10;99.90;;;;;;5048046;28;20433;-72
2021/08/01 12:22:21;;;;;;;5.50;3.15;;;21.40;99.90;;;;;;5063939;28;20029;-72
2021/08/01 12:24:54;;;;;;;7.07;2.92;;;21.40;95.60;;;;;;5029409;28;20637;-74
2021/08/01 12:27:25;;;;;;;3.65;2.35;;;21.60;95.00;;;;;;5030024;28;20057;-73
2021/08/01 12:29:55;;;;;;;4.65;2.65;;;21.70;91.20;;;;;;5030208;28;20039;-73
2021/08/01 12:32:32;;;;;;;5.68;2.70;;;21.70;90.00;;;;;;5030447;28;20076;-72
2021/08/01 12:35:01;;;;;;;5.07;2.30;;;21.80;96.50;;;;;;5062797;28;20028;-73
2021/08/01 12:37:30;;;;;;;4.57;2.58;;;21.50;85.00;;;;;;5029492;28;20028;-73
2021/08/01 12:39:56;;;;;;;4.63;2.70;;;21.70;91.60;;;;;;5046600;28;20029;-73
2021/08/01 12:42:23;;;;;;;4.40;2.47;;;21.80;93.00;;;;;;5029700;28;20094;-73
2021/08/01 12:44:53;;;;;;;4.88;2.60;;;21.80;90.00;;;;;;5045202;28;20112;-73
2021/08/01 12:47:19;;;;;;;5.40;2.80;;;21.70;84.10;;;;;;5048044;28;20025;-72
2021/08/01 12:49:47;;;;;;;4.45;2.55;;;21.70;93.00;;;;;;5045784;28;20032;-72
2021/08/01 12:52:20;;;;;;;4.80;2.58;;;21.90;93.10;;;;;;5045108;28;20099;-72
2021/08/01 12:54:46;;;;;;;3.88;2.40;;;22.00;91.90;;;;;;5062783;28;20037;-72
2021/08/01 12:57:16;;;;;;;4.15;2.20;;;21.90;81.60;;;;;;5013031;28;20039;-72
2021/08/01 12:59:42;;;;;;;4.40;2.42;;;22.10;86.80;;;;;;5046785;28;20044;-74